createdAt,value
2022-12-24T00:01:04.291Z,10.01
2022-12-24T00:03:30.840Z,9.93
2022-12-24T00:05:57.382Z,9.92
2022-12-24T00:08:23.840Z,9.59
2022-12-24T00:10:53.601Z,9.52
2022-12-24T00:13:20.071Z,9.54
2022-12-24T00:15:46.562Z,9.62
2022-12-24T00:18:12.981Z,9.44
2022-12-24T00:20:39.437Z,9.28
2022-12-24T00:23:05.806Z,9.20
2022-12-24T00:25:32.233Z,9.22
2022-12-24T00:27:58.853Z,9.35
2022-12-24T00:30:25.256Z,9.28
2022-12-24T00:32:51.657Z,9.23
2022-12-24T00:35:18.020Z,9.28
2022-12-24T00:37:47.428Z,9.34
2022-12-24T00:40:13.989Z,9.32
2022-12-24T00:42:40.349Z,9.31
2022-12-24T00:45:07.161Z,9.46
2022-12-24T00:47:33.523Z,9.51
2022-12-24T00:49:59.919Z,9.61
2022-12-24T00:52:26.354Z,9.45
2022-12-24T00:54:52.757Z,9.62
2022-12-24T00:57:19.150Z,9.60
2022-12-24T00:59:45.516Z,9.56
2022-12-24T01:02:12.066Z,9.63
2022-12-24T01:04:57.205Z,9.62
2022-12-24T01:07:23.607Z,9.79
2022-12-24T01:09:49.959Z,9.70
2022-12-24T01:12:16.329Z,9.70
2022-12-24T01:14:42.712Z,9.63
2022-12-24T01:17:09.176Z,9.70
2022-12-24T01:19:35.562Z,9.72
2022-12-24T01:22:02.003Z,9.71
2022-12-24T01:24:28.371Z,9.75
2022-12-24T01:26:54.743Z,9.75
2022-12-24T01:29:21.128Z,9.68
2022-12-24T01:31:47.591Z,9.72
2022-12-24T01:34:13.982Z,9.59
2022-12-24T01:36:40.385Z,9.69
2022-12-24T01:39:06.732Z,9.67
2022-12-24T01:41:51.875Z,9.69
2022-12-24T01:44:33.459Z,9.70
2022-12-24T01:47:21.335Z,9.62
2022-12-24T01:50:09.567Z,9.60
2022-12-24T01:52:36.267Z,9.60
2022-12-24T01:55:07.270Z,9.65
2022-12-24T01:57:37.542Z,9.72
2022-12-24T02:00:07.869Z,9.71
2022-12-24T02:02:35.097Z,9.64
2022-12-24T02:05:19.269Z,9.64
2022-12-24T02:07:46.025Z,9.64
2022-12-24T02:10:13.269Z,9.64
2022-12-24T02:12:40.631Z,9.68
2022-12-24T02:15:09.813Z,9.52
2022-12-24T02:17:58.519Z,9.59
2022-12-24T02:20:40.054Z,9.61
2022-12-24T02:23:21.593Z,9.51
2022-12-24T02:26:07.984Z,9.55
2022-12-24T02:29:11.257Z,9.66
2022-12-24T02:31:52.340Z,9.60
2022-12-24T02:34:28.177Z,9.47
2022-12-24T02:37:07.241Z,9.48
2022-12-24T02:39:40.520Z,9.47
2022-12-24T02:42:08.345Z,9.39
2022-12-24T02:44:47.810Z,9.44
2022-12-24T02:47:15.356Z,9.44
2022-12-24T02:49:45.303Z,9.40
2022-12-24T02:52:31.595Z,9.43
2022-12-24T02:54:59.097Z,9.43
2022-12-24T02:57:43.890Z,9.33
2022-12-24T03:00:13.934Z,9.35
2022-12-24T03:03:07.568Z,9.22
2022-12-24T03:05:45.156Z,9.26
2022-12-24T03:08:16.987Z,9.12
2022-12-24T03:10:46.794Z,9.18
2022-12-24T03:13:15.631Z,9.19
2022-12-24T03:15:42.665Z,9.13
2022-12-24T03:18:11.010Z,9.12
2022-12-24T03:20:44.445Z,9.09
2022-12-24T03:23:11.068Z,9.05
2022-12-24T03:25:40.063Z,9.07
2022-12-24T03:28:06.921Z,9.12
2022-12-24T03:30:33.836Z,9.16
2022-12-24T03:33:00.339Z,9.23
2022-12-24T03:35:26.736Z,9.24
2022-12-24T03:37:53.162Z,9.32
2022-12-24T03:40:19.541Z,9.31
2022-12-24T03:42:45.973Z,9.31
2022-12-24T03:45:12.399Z,9.29
2022-12-24T03:47:38.807Z,9.33
2022-12-24T03:50:06.407Z,9.39
2022-12-24T03:52:32.878Z,9.34
2022-12-24T03:54:59.240Z,9.20
2022-12-24T03:57:25.666Z,9.20
2022-12-24T03:59:52.520Z,9.32
2022-12-24T04:02:19.046Z,9.30
2022-12-24T04:04:45.594Z,9.36
2022-12-24T04:07:12.097Z,9.34
2022-12-24T04:09:39.049Z,9.32
2022-12-24T04:12:05.596Z,9.35
2022-12-24T04:14:31.985Z,9.35
2022-12-24T04:16:58.368Z,9.42
2022-12-24T04:19:24.775Z,9.31
2022-12-24T04:21:51.189Z,9.31
2022-12-24T04:24:17.603Z,9.46
2022-12-24T04:26:44.018Z,9.47
2022-12-24T04:29:10.508Z,9.53
2022-12-24T04:31:37.369Z,9.55
2022-12-24T04:34:03.863Z,9.54
2022-12-24T04:36:31.426Z,9.51
2022-12-24T04:38:57.813Z,9.51
2022-12-24T04:41:25.555Z,9.54
2022-12-24T04:43:53.298Z,9.45
2022-12-24T04:46:22.521Z,9.58
2022-12-24T04:48:50.527Z,9.52
2022-12-24T04:51:17.875Z,9.52
2022-12-24T04:53:44.886Z,9.55
2022-12-24T04:56:16.375Z,9.49
2022-12-24T04:58:42.770Z,9.46
2022-12-24T05:01:13.454Z,9.46
2022-12-24T05:03:40.123Z,9.45
2022-12-24T05:06:09.135Z,9.50
2022-12-24T05:08:35.565Z,9.46
2022-12-24T05:11:02.525Z,9.44
2022-12-24T05:13:37.601Z,9.34
2022-12-24T05:16:09.309Z,9.43
2022-12-24T05:18:35.823Z,9.45
2022-12-24T05:21:02.811Z,9.55
2022-12-24T05:23:47.818Z,9.42
2022-12-24T05:26:23.277Z,9.43
2022-12-24T05:28:51.347Z,9.52
2022-12-24T05:31:18.441Z,9.55
2022-12-24T05:33:45.538Z,9.61
2022-12-24T05:36:11.996Z,9.61
2022-12-24T05:38:38.446Z,9.54
2022-12-24T05:41:05.427Z,9.52
2022-12-24T05:43:32.145Z,9.48
2022-12-24T05:46:03.617Z,9.46
2022-12-24T05:48:30.040Z,9.49
2022-12-24T05:50:56.565Z,9.43
2022-12-24T05:53:22.979Z,9.46
2022-12-24T05:55:49.488Z,9.46
2022-12-24T05:58:15.994Z,9.38
2022-12-24T06:00:42.837Z,9.36
2022-12-24T06:03:09.241Z,9.47
2022-12-24T06:05:35.677Z,9.40
2022-12-24T06:08:02.047Z,9.37
2022-12-24T06:10:28.417Z,9.45
2022-12-24T06:12:55.787Z,9.42
2022-12-24T06:15:24.117Z,9.33
2022-12-24T06:17:50.781Z,9.48
2022-12-24T06:20:17.186Z,9.53
2022-12-24T06:22:43.567Z,9.53
2022-12-24T06:25:09.949Z,9.48
2022-12-24T06:27:36.312Z,9.42
2022-12-24T06:30:02.709Z,9.44
2022-12-24T06:32:29.099Z,9.48
2022-12-24T06:34:55.501Z,9.51
2022-12-24T06:37:21.866Z,9.45
2022-12-24T06:39:48.260Z,9.47
2022-12-24T06:42:14.680Z,9.52
2022-12-24T06:44:41.053Z,9.52
2022-12-24T06:47:07.427Z,9.43
2022-12-24T06:49:33.804Z,9.48
2022-12-24T06:52:00.197Z,9.56
2022-12-24T06:54:27.248Z,9.48
2022-12-24T06:56:53.611Z,9.48
2022-12-24T06:59:20.057Z,9.59
2022-12-24T07:01:46.535Z,9.56
2022-12-24T07:04:19.681Z,9.53
2022-12-24T07:06:47.296Z,9.49
2022-12-24T07:09:14.289Z,9.57
2022-12-24T07:11:40.764Z,9.59
2022-12-24T07:14:07.240Z,9.63
2022-12-24T07:16:33.775Z,9.54
2022-12-24T07:19:00.183Z,9.54
2022-12-24T07:21:26.554Z,9.52
2022-12-24T07:23:52.917Z,9.56
2022-12-24T07:26:19.359Z,9.52
2022-12-24T07:28:45.761Z,9.54
2022-12-24T07:31:12.254Z,9.55
2022-12-24T07:33:38.774Z,9.50
2022-12-24T07:36:08.293Z,9.55
2022-12-24T07:38:34.890Z,9.57
2022-12-24T07:41:01.686Z,9.59
2022-12-24T07:43:28.654Z,9.55
2022-12-24T07:45:58.491Z,9.52
2022-12-24T07:48:26.299Z,9.57
2022-12-24T07:50:52.829Z,9.63
2022-12-24T07:53:19.508Z,9.52
2022-12-24T07:55:46.203Z,9.56
2022-12-24T07:58:12.637Z,9.52
2022-12-24T08:00:39.009Z,9.53
2022-12-24T08:03:05.522Z,9.49
2022-12-24T08:05:38.099Z,9.47
2022-12-24T08:08:04.518Z,9.48
2022-12-24T08:10:30.958Z,9.50
2022-12-24T08:12:57.583Z,9.47
2022-12-24T08:15:24.028Z,9.52
2022-12-24T08:17:50.467Z,9.48
2022-12-24T08:20:17.294Z,9.61
2022-12-24T08:22:43.697Z,9.53
2022-12-24T08:25:10.410Z,9.63
2022-12-24T08:27:36.788Z,9.69
2022-12-24T08:30:04.612Z,9.71
2022-12-24T08:32:31.018Z,9.71
2022-12-24T08:34:57.384Z,9.71
2022-12-24T08:37:23.767Z,9.78
2022-12-24T08:39:50.151Z,9.68
2022-12-24T08:42:16.628Z,9.79
2022-12-24T08:44:43.028Z,9.71
2022-12-24T08:47:09.422Z,9.68
2022-12-24T08:49:35.831Z,9.72
2022-12-24T08:52:02.221Z,9.77
2022-12-24T08:54:28.609Z,9.80
2022-12-24T08:56:54.998Z,9.86
2022-12-24T08:59:21.375Z,9.93
2022-12-24T09:01:47.912Z,9.77
2022-12-24T09:04:14.601Z,9.90
2022-12-24T09:06:41.075Z,9.79
2022-12-24T09:09:07.531Z,9.93
2022-12-24T09:11:35.020Z,9.82
2022-12-24T09:14:01.587Z,9.92
2022-12-24T09:16:28.127Z,9.82
2022-12-24T09:18:54.547Z,9.83
2022-12-24T09:21:21.088Z,9.87
2022-12-24T09:23:48.308Z,9.82
2022-12-24T09:26:18.936Z,9.88
2022-12-24T09:28:45.580Z,9.94
2022-12-24T09:31:12.630Z,9.91
2022-12-24T09:33:40.983Z,9.97
2022-12-24T09:36:07.851Z,10.05
2022-12-24T09:38:34.742Z,10.15
2022-12-24T09:41:07.134Z,10.24
2022-12-24T09:43:36.439Z,10.11
2022-12-24T09:46:27.806Z,10.21
2022-12-24T09:48:57.237Z,10.22
2022-12-24T09:51:31.964Z,10.16
2022-12-24T09:54:04.437Z,10.09
2022-12-24T09:56:34.114Z,10.04
2022-12-24T09:59:02.771Z,10.07
2022-12-24T10:01:31.298Z,10.12
2022-12-24T10:04:02.009Z,10.03
2022-12-24T10:06:35.128Z,10.05
2022-12-24T10:09:10.573Z,10.05
2022-12-24T10:11:59.883Z,9.95
2022-12-24T10:14:32.393Z,10.03
2022-12-24T10:16:58.857Z,10.12
2022-12-24T10:19:47.102Z,10.18
2022-12-24T10:22:25.409Z,10.20
2022-12-24T10:24:54.766Z,10.22
2022-12-24T10:27:25.081Z,10.18
2022-12-24T10:29:56.251Z,10.24
2022-12-24T10:32:29.072Z,10.16
2022-12-24T10:35:00.287Z,10.18
2022-12-24T10:37:28.819Z,10.23
2022-12-24T10:39:57.270Z,10.32
2022-12-24T10:42:26.402Z,10.24
2022-12-24T10:44:57.867Z,10.41
2022-12-24T10:47:24.660Z,10.36
2022-12-24T10:49:58.245Z,10.52
2022-12-24T10:52:28.930Z,10.64
2022-12-24T10:55:09.315Z,10.28
2022-12-24T10:57:35.749Z,10.42
2022-12-24T11:00:03.007Z,10.37
2022-12-24T11:02:36.427Z,10.61
2022-12-24T11:05:06.103Z,10.61
2022-12-24T11:07:34.071Z,10.63
2022-12-24T11:10:06.843Z,10.73
2022-12-24T11:12:40.381Z,11.03
2022-12-24T11:15:26.852Z,11.14
2022-12-24T11:18:05.823Z,11.04
2022-12-24T11:20:35.677Z,10.84
2022-12-24T11:23:02.445Z,10.90
2022-12-24T11:25:31.693Z,11.03
2022-12-24T11:28:12.434Z,10.94
2022-12-24T11:30:39.030Z,11.26
2022-12-24T11:33:08.322Z,11.16
2022-12-24T11:35:40.584Z,11.37
2022-12-24T11:38:06.884Z,11.24
2022-12-24T11:40:36.251Z,11.01
2022-12-24T11:43:07.239Z,10.83
2022-12-24T11:45:37.385Z,10.79
2022-12-24T11:48:30.838Z,10.87
2022-12-24T11:51:02.285Z,10.60
2022-12-24T11:53:37.650Z,10.84
2022-12-24T11:56:15.228Z,10.78
2022-12-24T11:58:43.904Z,10.68
2022-12-24T12:01:24.823Z,10.74
2022-12-24T12:04:25.728Z,10.79
2022-12-24T12:06:55.835Z,10.70
2022-12-24T12:09:26.548Z,10.62
2022-12-24T12:12:00.703Z,10.80
2022-12-24T12:15:22.633Z,10.71
2022-12-24T12:17:56.186Z,10.74
2022-12-24T12:20:30.563Z,10.74
2022-12-24T12:23:03.099Z,10.64
2022-12-24T12:26:08.104Z,10.70
2022-12-24T12:28:46.077Z,10.61
2022-12-24T12:31:17.061Z,10.53
2022-12-24T12:33:48.804Z,10.57
2022-12-24T12:36:19.408Z,10.66
2022-12-24T12:38:45.841Z,10.57
2022-12-24T12:41:44.858Z,10.32
2022-12-24T12:44:26.120Z,10.43
2022-12-24T12:47:24.439Z,10.56
2022-12-24T12:50:03.856Z,10.55
2022-12-24T12:52:55.079Z,10.56
2022-12-24T12:55:57.927Z,10.86
2022-12-24T12:58:42.620Z,10.79
2022-12-24T13:01:16.165Z,10.65
2022-12-24T13:04:00.983Z,10.65
2022-12-24T13:07:05.842Z,10.64
2022-12-24T13:09:50.402Z,10.47
2022-12-24T13:12:25.173Z,10.68
2022-12-24T13:14:57.668Z,10.62
2022-12-24T13:17:33.095Z,10.67
2022-12-24T13:20:09.376Z,10.69
2022-12-24T13:22:35.995Z,10.61
2022-12-24T13:25:02.484Z,10.57
2022-12-24T13:27:33.899Z,10.43
2022-12-24T13:30:09.723Z,10.54
2022-12-24T13:32:38.428Z,10.66
2022-12-24T13:35:25.121Z,10.75
2022-12-24T13:37:51.840Z,10.78
2022-12-24T13:40:25.971Z,10.62
2022-12-24T13:42:58.453Z,10.62
2022-12-24T13:45:33.940Z,10.58
2022-12-24T13:48:17.984Z,10.56
2022-12-24T13:50:55.752Z,10.54
2022-12-24T13:53:34.189Z,10.58
2022-12-24T13:56:12.678Z,10.57
2022-12-24T13:58:42.135Z,10.60
2022-12-24T14:01:11.452Z,10.69
2022-12-24T14:03:55.883Z,10.68
2022-12-24T14:06:31.312Z,10.49
2022-12-24T14:09:25.194Z,10.25
2022-12-24T14:12:03.776Z,10.39
2022-12-24T14:14:40.208Z,10.09
2022-12-24T14:17:21.532Z,10.20
2022-12-24T14:19:50.910Z,10.06
2022-12-24T14:22:26.284Z,10.02
2022-12-24T14:24:55.636Z,10.20
2022-12-24T14:27:27.393Z,10.07
2022-12-24T14:30:05.967Z,10.23
2022-12-24T14:32:37.451Z,10.22
2022-12-24T14:35:19.106Z,10.18
2022-12-24T14:37:48.078Z,10.14
2022-12-24T14:40:17.193Z,10.17
2022-12-24T14:43:14.291Z,10.26
2022-12-24T14:45:51.955Z,10.29
2022-12-24T14:48:29.518Z,10.38
2022-12-24T14:51:14.829Z,10.19
2022-12-24T14:54:02.769Z,10.11
2022-12-24T14:56:29.163Z,10.13
2022-12-24T14:58:56.627Z,10.16
2022-12-24T15:01:27.933Z,10.15
2022-12-24T15:04:05.869Z,10.11
2022-12-24T15:06:34.124Z,10.01
2022-12-24T15:09:00.778Z,9.96
2022-12-24T15:11:27.182Z,9.95
2022-12-24T15:13:58.306Z,9.96
2022-12-24T15:16:37.003Z,9.83
2022-12-24T15:19:15.887Z,9.73
2022-12-24T15:21:42.549Z,9.75
2022-12-24T15:24:32.157Z,9.68
2022-12-24T15:26:59.332Z,9.59
2022-12-24T15:29:28.218Z,9.62
2022-12-24T15:31:59.454Z,9.58
2022-12-24T15:34:27.073Z,9.43
2022-12-24T15:37:01.307Z,9.38
2022-12-24T15:39:27.730Z,9.45
2022-12-24T15:42:12.796Z,9.21
2022-12-24T15:44:41.727Z,9.15
2022-12-24T15:47:15.301Z,9.22
2022-12-24T15:49:44.628Z,9.31
2022-12-24T15:52:13.297Z,9.40
2022-12-24T15:54:44.950Z,9.31
2022-12-24T15:57:26.706Z,9.36
2022-12-24T15:59:54.980Z,9.36
2022-12-24T16:02:33.770Z,9.16
2022-12-24T16:05:21.683Z,9.09
2022-12-24T16:08:13.362Z,9.03
2022-12-24T16:10:46.594Z,8.91
2022-12-24T16:13:22.667Z,8.82
2022-12-24T16:15:55.151Z,8.70
2022-12-24T16:18:36.496Z,8.55
2022-12-24T16:21:03.877Z,8.50
2022-12-24T16:23:44.863Z,8.47
2022-12-24T16:26:11.220Z,8.60
2022-12-24T16:28:37.605Z,8.45
2022-12-24T16:31:04.246Z,8.47
2022-12-24T16:33:30.783Z,8.39
2022-12-24T16:35:57.413Z,8.58
2022-12-24T16:38:23.922Z,8.55
2022-12-24T16:40:50.305Z,8.58
2022-12-24T16:43:35.276Z,8.62
2022-12-24T16:46:04.063Z,8.59
2022-12-24T16:48:30.950Z,8.55
2022-12-24T16:50:57.392Z,8.40
2022-12-24T16:53:23.805Z,8.42
2022-12-24T16:55:51.732Z,8.46
2022-12-24T16:58:19.582Z,8.38
2022-12-24T17:00:46.495Z,8.50
2022-12-24T17:03:13.288Z,8.39
2022-12-24T17:05:43.832Z,8.48
2022-12-24T17:08:10.556Z,8.39
2022-12-24T17:10:36.958Z,8.35
2022-12-24T17:13:03.845Z,8.29
2022-12-24T17:15:30.448Z,8.28
2022-12-24T17:17:56.850Z,8.09
2022-12-24T17:20:24.422Z,7.95
2022-12-24T17:22:51.193Z,8.03
2022-12-24T17:25:17.639Z,7.96
2022-12-24T17:27:44.079Z,7.92
2022-12-24T17:30:10.675Z,7.87
2022-12-24T17:32:37.376Z,7.90
2022-12-24T17:35:04.033Z,7.90
2022-12-24T17:37:30.440Z,7.79
2022-12-24T17:39:56.961Z,7.67
2022-12-24T17:42:23.383Z,7.74
2022-12-24T17:44:49.747Z,8.00
2022-12-24T17:47:16.110Z,7.98
2022-12-24T17:49:42.519Z,8.08
2022-12-24T17:52:08.932Z,7.95
2022-12-24T17:54:35.316Z,7.84
2022-12-24T17:57:01.794Z,7.62
2022-12-24T17:59:28.597Z,7.71
2022-12-24T18:01:55.044Z,7.55
2022-12-24T18:04:21.529Z,7.49
2022-12-24T18:06:49.789Z,7.63
2022-12-24T18:09:16.808Z,7.53
2022-12-24T18:11:43.212Z,7.43
2022-12-24T18:14:12.067Z,7.32
2022-12-24T18:16:40.129Z,7.26
2022-12-24T18:19:10.141Z,7.23
2022-12-24T18:21:36.533Z,7.41
2022-12-24T18:24:03.054Z,7.53
2022-12-24T18:26:30.530Z,7.68
2022-12-24T18:28:58.476Z,7.55
2022-12-24T18:31:26.643Z,7.50
2022-12-24T18:33:54.870Z,7.22
2022-12-24T18:36:21.834Z,7.25
2022-12-24T18:38:48.538Z,7.32
2022-12-24T18:41:17.614Z,7.29
2022-12-24T18:43:44.007Z,7.39
2022-12-24T18:46:15.355Z,7.40
2022-12-24T18:48:41.975Z,7.26
2022-12-24T18:51:09.838Z,7.35
2022-12-24T18:53:36.724Z,7.44
2022-12-24T18:56:26.558Z,7.40
2022-12-24T18:58:54.807Z,7.21
2022-12-24T19:01:26.517Z,7.04
2022-12-24T19:03:52.977Z,7.19
2022-12-24T19:06:22.047Z,7.14
2022-12-24T19:08:57.615Z,7.38
2022-12-24T19:11:26.193Z,7.32
2022-12-24T19:13:55.537Z,7.37
2022-12-24T19:16:22.459Z,7.36
2022-12-24T19:18:49.391Z,7.28
2022-12-24T19:21:17.180Z,7.20
2022-12-24T19:23:44.375Z,7.15
2022-12-24T19:26:11.459Z,7.14
2022-12-24T19:28:39.489Z,7.25
2022-12-24T19:31:11.256Z,7.20
2022-12-24T19:33:44.273Z,7.35
2022-12-24T19:36:16.410Z,7.40
2022-12-24T19:38:43.163Z,7.40
2022-12-24T19:41:12.519Z,7.38
2022-12-24T19:43:44.462Z,7.40
2022-12-24T19:46:14.174Z,7.42
2022-12-24T19:48:41.656Z,7.44
2022-12-24T19:51:10.378Z,7.42
2022-12-24T19:53:37.677Z,7.28
2022-12-24T19:56:05.083Z,7.27
2022-12-24T19:58:34.396Z,7.15
2022-12-24T20:01:18.610Z,7.15
2022-12-24T20:03:45.803Z,7.29
2022-12-24T20:06:13.583Z,7.36
2022-12-24T20:08:40.458Z,7.42
2022-12-24T20:11:08.778Z,7.43
2022-12-24T20:13:36.940Z,7.36
2022-12-24T20:16:22.631Z,7.34
2022-12-24T20:19:08.212Z,7.22
2022-12-24T20:21:35.139Z,7.26
2022-12-24T20:24:01.765Z,7.25
2022-12-24T20:26:28.855Z,7.34
2022-12-24T20:28:55.240Z,7.40
2022-12-24T20:31:24.671Z,7.40
2022-12-24T20:33:51.222Z,7.37
2022-12-24T20:36:18.777Z,7.26
2022-12-24T20:38:45.910Z,7.37
2022-12-24T20:41:14.095Z,7.33
2022-12-24T20:43:47.859Z,7.36
2022-12-24T20:46:15.383Z,7.41
2022-12-24T20:48:42.195Z,7.36
2022-12-24T20:51:22.865Z,7.41
2022-12-24T20:53:50.127Z,7.40
2022-12-24T20:56:18.180Z,7.45
2022-12-24T20:58:45.267Z,7.43
2022-12-24T21:01:14.678Z,7.41
2022-12-24T21:03:41.121Z,7.41
2022-12-24T21:06:07.758Z,7.26
2022-12-24T21:08:34.251Z,7.35
2022-12-24T21:11:19.137Z,7.38
2022-12-24T21:13:45.507Z,7.18
2022-12-24T21:16:11.942Z,7.05
2022-12-24T21:18:38.342Z,6.91
2022-12-24T21:21:04.797Z,6.84
2022-12-24T21:23:31.232Z,6.89
2022-12-24T21:25:59.437Z,6.97
2022-12-24T21:28:26.958Z,7.21
2022-12-24T21:30:53.442Z,7.31
2022-12-24T21:33:20.022Z,7.34
2022-12-24T21:35:46.440Z,7.24
2022-12-24T21:38:13.039Z,7.27
2022-12-24T21:40:39.533Z,7.14
2022-12-24T21:43:07.341Z,6.97
2022-12-24T21:45:34.060Z,7.04
2022-12-24T21:48:20.453Z,6.94
2022-12-24T21:50:56.962Z,6.74
2022-12-24T21:53:41.992Z,6.92
2022-12-24T21:56:11.874Z,7.11
2022-12-24T21:58:38.284Z,7.36
2022-12-24T22:01:09.003Z,7.44
2022-12-24T22:03:35.882Z,7.46
2022-12-24T22:06:02.431Z,7.37
2022-12-24T22:08:47.437Z,7.47
2022-12-24T22:11:33.125Z,7.52
2022-12-24T22:13:59.827Z,7.43
2022-12-24T22:16:26.757Z,7.58
2022-12-24T22:18:53.378Z,7.63
2022-12-24T22:21:20.183Z,7.62
2022-12-24T22:23:46.639Z,7.54
2022-12-24T22:26:14.690Z,7.70
2022-12-24T22:28:41.074Z,7.75
2022-12-24T22:31:07.561Z,7.57
2022-12-24T22:33:36.086Z,7.74
2022-12-24T22:36:05.793Z,7.73
2022-12-24T22:38:32.193Z,7.69
2022-12-24T22:40:58.579Z,7.86
2022-12-24T22:43:25.006Z,7.79
2022-12-24T22:45:51.658Z,7.80
2022-12-24T22:48:18.030Z,7.52
2022-12-24T22:50:44.410Z,7.39
2022-12-24T22:53:10.769Z,7.34
2022-12-24T22:55:37.235Z,7.23
2022-12-24T22:58:04.207Z,7.21
2022-12-24T23:00:44.873Z,7.08
2022-12-24T23:03:11.900Z,7.16
2022-12-24T23:05:38.775Z,7.18
2022-12-24T23:08:05.834Z,7.03
2022-12-24T23:10:32.237Z,7.17
2022-12-24T23:13:17.132Z,7.06
2022-12-24T23:15:43.555Z,7.06
2022-12-24T23:18:10.534Z,7.03
2022-12-24T23:20:42.241Z,7.20
2022-12-24T23:23:09.017Z,7.07
2022-12-24T23:25:35.624Z,6.99
2022-12-24T23:28:02.009Z,6.86
2022-12-24T23:30:28.509Z,6.84
2022-12-24T23:32:54.904Z,6.71
2022-12-24T23:35:21.329Z,6.54
2022-12-24T23:37:47.728Z,6.56
2022-12-24T23:40:14.283Z,6.53
2022-12-24T23:42:40.804Z,6.41
2022-12-24T23:45:07.620Z,6.32
2022-12-24T23:47:34.006Z,6.31
2022-12-24T23:50:00.471Z,6.18
2022-12-24T23:52:26.853Z,6.19
2022-12-24T23:54:53.216Z,6.36
2022-12-24T23:57:19.653Z,6.39
2022-12-24T23:59:46.028Z,6.34
